Time;durP1;ratioP1;P1;durP2;ratioP2;P2;SDS_P1;SDS_P2;PMS_P1;PMS_P2;Temp;Humidity;BMP_temperature;BMP_pressure;BME280_temperature;BME280_humidity;BME280_pressure;Samples;Min_cycle;Max_cycle;Signal;HPM_P1;HPM_P2
2022/05/14 00:01:42;;;;;;;5.77;2.73;;;;;;;12.94;100.00;99477.75;5154651;27;20201;-87
2022/05/14 00:04:12;;;;;;;4.90;2.57;;;;;;;13.10;100.00;99480.19;5098716;27;20188;-87
2022/05/14 00:06:41;;;;;;;5.77;3.13;;;;;;;12.99;100.00;99478.28;5154080;27;20189;-87
2022/05/14 00:09:10;;;;;;;5.53;3.00;;;;;;;13.02;100.00;99478.06;5150030;27;20205;-87
2022/05/14 00:14:24;;;;;;;5.90;2.90;;;;;;;13.12;100.00;99479.16;5156552;27;20205;-87
2022/05/14 00:16:53;;;;;;;3.73;3.10;;;;;;;13.30;100.00;99487.66;5151883;27;20182;-87
2022/05/14 00:19:22;;;;;;;6.53;3.53;;;;;;;13.27;100.00;99474.59;5151654;27;20253;-87
2022/05/14 00:21:50;;;;;;;6.80;3.50;;;;;;;13.07;100.00;99480.41;5153912;27;20204;-87
2022/05/14 00:24:19;;;;;;;4.87;3.20;;;;;;;13.18;100.00;99472.53;5154371;27;20239;-87
2022/05/14 00:26:47;;;;;;;4.70;3.30;;;;;;;13.14;100.00;99471.91;5148410;27;20193;-86
2022/05/14 00:29:16;;;;;;;9.10;3.50;;;;;;;12.92;100.00;99469.00;5143895;27;20197;-86
2022/05/14 00:31:44;;;;;;;7.00;3.43;;;;;;;13.01;100.00;99470.19;5153100;27;20193;-87
2022/05/14 00:34:13;;;;;;;7.13;3.37;;;;;;;12.90;100.00;99465.63;5149633;27;20190;-87
2022/05/14 00:36:46;;;;;;;6.23;3.43;;;;;;;12.63;100.00;99468.34;5151009;27;20244;-86
2022/05/14 00:39:15;;;;;;;7.43;3.60;;;;;;;12.70;100.00;99466.13;5105206;27;20199;-87
2022/05/14 00:41:48;;;;;;;5.80;3.50;;;;;;;12.48;100.00;99472.88;5152986;27;20277;-86
2022/05/14 00:44:17;;;;;;;4.73;3.53;;;;;;;12.41;100.00;99473.41;5144527;27;20223;-87
2022/05/14 00:46:48;;;;;;;5.23;3.20;;;;;;;12.56;100.00;99470.56;5149076;27;20648;-86
2022/05/14 00:49:21;;;;;;;3.83;2.70;;;;;;;12.54;100.00;99474.28;5147524;27;20204;-87
2022/05/14 00:51:52;;;;;;;5.67;2.83;;;;;;;12.49;100.00;99473.75;5158873;27;20194;-87
2022/05/14 00:54:27;;;;;;;4.60;3.10;;;;;;;12.46;100.00;99477.47;5157070;27;20194;-87
2022/05/14 00:56:58;;;;;;;5.07;2.90;;;;;;;12.26;100.00;99470.81;5160599;27;20241;-86
2022/05/14 00:59:28;;;;;;;5.83;4.00;;;;;;;12.29;100.00;99472.41;5159873;27;20201;-86
2022/05/14 01:01:58;;;;;;;6.57;3.97;;;;;;;12.01;100.00;99483.97;5162315;27;20193;-87
2022/05/14 01:04:28;;;;;;;6.23;3.87;;;;;;;12.11;100.00;99476.28;5159218;27;20273;-86
2022/05/14 01:07:04;;;;;;;5.40;3.40;;;;;;;12.00;100.00;99477.81;5159416;27;20214;-86
2022/05/14 01:09:33;;;;;;;4.37;2.60;;;;;;;11.89;100.00;99482.97;5173729;27;20268;-85
2022/05/14 01:12:03;;;;;;;6.13;2.87;;;;;;;11.88;100.00;99480.41;5157115;27;20190;-86
2022/05/14 01:14:31;;;;;;;4.97;3.00;;;;;;;11.81;100.00;99469.34;5162027;27;20189;-86
2022/05/14 01:16:59;;;;;;;8.07;3.40;;;;;;;11.80;100.00;99475.59;5163518;27;20193;-87
2022/05/14 01:19:28;;;;;;;5.57;2.97;;;;;;;11.88;100.00;99477.78;5159365;27;20204;-87
2022/05/14 01:22:09;;;;;;;5.13;2.37;;;;;;;12.03;100.00;99474.97;5126370;27;20204;-87
2022/05/14 01:27:35;;;;;;;4.60;2.93;;;;;;;12.06;100.00;99473.03;5159391;27;20217;-87
2022/05/14 01:30:04;;;;;;;4.77;2.50;;;;;;;12.18;100.00;99474.94;5157492;27;20204;-86
2022/05/14 01:32:32;;;;;;;5.40;3.23;;;;;;;12.01;100.00;99478.66;5155610;27;20635;-86
2022/05/14 01:35:00;;;;;;;5.97;3.53;;;;;;;12.03;100.00;99467.00;5154430;27;20190;-87
2022/05/14 01:37:29;;;;;;;7.57;3.90;;;;;;;12.12;100.00;99468.19;5154178;27;20272;-86
2022/05/14 01:39:57;;;;;;;5.13;3.67;;;;;;;12.02;100.00;99473.25;5159950;27;20190;-86
2022/05/14 01:42:27;;;;;;;6.80;3.53;;;;;;;12.03;100.00;99472.31;5152010;27;20189;-87
2022/05/14 01:44:57;;;;;;;7.17;3.30;;;;;;;12.05;100.00;99466.88;5158247;27;20272;-87
2022/05/14 01:47:26;;;;;;;6.20;3.07;;;;;;;11.85;100.00;99475.28;5155243;27;20704;-86
2022/05/14 01:49:54;;;;;;;7.97;3.87;;;;;;;11.72;100.00;99473.41;5157574;27;20206;-87
2022/05/14 01:52:24;;;;;;;7.93;3.33;;;;;;;11.62;100.00;99482.03;5152952;27;20192;-86
2022/05/14 01:54:53;;;;;;;5.13;3.30;;;;;;;11.41;100.00;99478.94;5151657;27;20190;-86
2022/05/14 01:57:22;;;;;;;7.20;3.47;;;;;;;11.34;100.00;99486.41;5157854;27;20196;-86
2022/05/14 01:59:51;;;;;;;6.10;3.60;;;;;;;11.49;100.00;99481.97;5153899;27;20668;-86
2022/05/14 02:02:23;;;;;;;4.93;3.33;;;;;;;11.59;100.00;99472.47;5114817;28;20214;-86
2022/05/14 02:04:51;;;;;;;6.27;3.37;;;;;;;11.50;100.00;99474.84;5072226;28;20223;-87
2022/05/14 02:07:19;;;;;;;6.30;3.47;;;;;;;11.44;100.00;99471.63;5069581;28;20675;-86
2022/05/14 02:09:47;;;;;;;4.93;3.40;;;;;;;11.34;100.00;99477.59;5067427;28;20211;-87
2022/05/14 02:12:18;;;;;;;6.10;3.23;;;;;;;11.38;100.00;99474.66;5073346;28;20207;-86
2022/05/14 02:14:47;;;;;;;5.33;3.40;;;;;;;11.14;100.00;99487.63;5071438;28;20192;-86
2022/05/14 02:17:15;;;;;;;6.40;3.60;;;;;;;11.05;100.00;99484.69;5071635;28;20188;-87
2022/05/14 02:19:49;;;;;;;4.30;3.23;;;;;;;10.89;100.00;99479.44;5067279;28;20199;-86
2022/05/14 02:22:18;;;;;;;4.53;3.30;;;;;;;10.99;100.00;99471.81;5080531;28;20205;-87
2022/05/14 02:24:46;;;;;;;5.67;3.20;;;;;;;11.15;100.00;99470.78;5116034;28;20217;-86
2022/05/14 02:27:14;;;;;;;6.10;3.67;;;;;;;11.25;100.00;99472.88;5135451;27;20232;-86
2022/05/14 02:29:51;;;;;;;8.43;3.70;;;;;;;11.20;100.00;99473.16;5154940;27;20185;-86
2022/05/14 02:32:20;;;;;;;7.53;3.80;;;;;;;11.17;100.00;99470.69;5153434;27;20185;-87
2022/05/14 02:34:51;;;;;;;6.13;3.50;;;;;;;11.24;100.00;99472.00;5154063;27;20289;-87
2022/05/14 02:37:22;;;;;;;7.00;3.80;;;;;;;11.23;100.00;99467.66;5155911;27;20185;-86
2022/05/14 02:39:51;;;;;;;7.07;3.60;;;;;;;11.28;100.00;99467.38;5158689;27;20190;-86
2022/05/14 02:42:19;;;;;;;4.90;3.50;;;;;;;11.21;100.00;99476.66;5156256;27;20193;-87
2022/05/14 02:44:48;;;;;;;7.40;4.10;;;;;;;11.35;100.00;99463.38;5152332;27;20684;-86
2022/05/14 02:47:17;;;;;;;7.70;4.03;;;;;;;11.31;100.00;99460.09;5157567;27;20205;-86
2022/05/14 02:49:48;;;;;;;6.33;3.57;;;;;;;11.11;100.00;99463.97;5155295;27;20198;-86
2022/05/14 02:52:17;;;;;;;5.10;3.20;;;;;;;11.14;100.00;99465.56;5154861;27;20213;-87
2022/05/14 02:54:47;;;;;;;6.27;4.13;;;;;;;11.02;100.00;99463.69;5154805;27;20198;-86
2022/05/14 02:57:15;;;;;;;6.80;3.90;;;;;;;11.12;100.00;99468.31;5146273;27;20266;-86
2022/05/14 02:59:48;;;;;;;6.20;3.90;;;;;;;11.14;100.00;99463.78;5154739;27;20234;-86
2022/05/14 03:02:17;;;;;;;6.27;4.20;;;;;;;10.99;100.00;99467.34;5155831;27;20205;-86
2022/05/14 03:04:48;;;;;;;6.83;3.93;;;;;;;11.00;100.00;99469.09;5157893;27;20213;-87
2022/05/14 03:07:18;;;;;;;5.13;3.80;;;;;;;10.99;100.00;99467.34;5158614;27;20272;-87
2022/05/14 03:09:46;;;;;;;6.93;3.40;;;;;;;11.02;100.00;99469.84;5153585;27;20205;-86
2022/05/14 03:12:17;;;;;;;7.47;3.57;;;;;;;10.86;100.00;99453.16;5156553;27;20189;-86
2022/05/14 03:14:45;;;;;;;5.77;3.60;;;;;;;10.70;100.00;99465.59;5153410;27;20197;-86
2022/05/14 03:17:16;;;;;;;8.27;3.57;;;;;;;10.45;100.00;99469.72;5157319;27;20276;-86
2022/05/14 03:19:44;;;;;;;4.13;3.30;;;;;;;10.65;100.00;99465.03;5153040;27;20190;-86
2022/05/14 03:22:12;;;;;;;10.07;3.43;;;;;;;10.87;100.00;99461.00;5149731;27;20201;-86
2022/05/14 03:24:43;;;;;;;5.60;3.40;;;;;;;10.77;100.00;99469.59;5156648;27;20225;-87
2022/05/14 03:27:13;;;;;;;4.13;3.60;;;;;;;10.80;100.00;99474.69;5148378;27;20229;-87
2022/05/14 03:29:42;;;;;;;8.33;3.90;;;;;;;10.89;100.00;99467.06;5153789;27;20181;-87
2022/05/14 03:32:11;;;;;;;5.67;3.30;;;;;;;10.87;100.00;99468.94;5151475;27;20208;-86
2022/05/14 03:34:40;;;;;;;5.17;3.73;;;;;;;10.90;100.00;99470.56;5157772;27;20644;-87
2022/05/14 03:37:08;;;;;;;6.00;3.47;;;;;;;10.89;100.00;99467.06;5150298;27;20197;-88
2022/05/14 03:39:37;;;;;;;5.67;3.90;;;;;;;10.80;100.00;99470.25;5153802;27;20202;-88
2022/05/14 03:42:08;;;;;;;6.90;4.00;;;;;;;10.71;100.00;99473.47;5148990;27;20200;-87
2022/05/14 03:44:36;;;;;;;4.43;3.50;;;;;;;10.83;100.00;99470.09;5148763;27;20228;-87
2022/05/14 03:47:05;;;;;;;6.83;3.67;;;;;;;10.69;100.00;99474.50;5151731;27;20200;-88
2022/05/14 03:49:33;;;;;;;6.17;3.90;;;;;;;10.53;100.00;99472.78;5157565;27;20200;-87
2022/05/14 03:52:02;;;;;;;4.77;3.50;;;;;;;10.54;100.00;99478.91;5155052;27;20246;-87
2022/05/14 03:54:31;;;;;;;5.57;3.67;;;;;;;10.49;100.00;99481.81;5154422;27;20274;-87
2022/05/14 03:57:01;;;;;;;5.67;4.00;;;;;;;10.44;100.00;99488.34;5156679;27;20194;-87
2022/05/14 03:59:31;;;;;;;5.17;3.70;;;;;;;10.49;100.00;99489.75;5148737;27;20209;-87
2022/05/14 04:02:02;;;;;;;7.00;4.27;;;;;;;10.45;100.00;99490.91;5152201;27;20206;-88
2022/05/14 04:04:30;;;;;;;8.13;4.70;;;;;;;10.52;100.00;99486.97;5115594;28;20341;-87
2022/05/14 04:06:59;;;;;;;5.63;3.80;;;;;;;10.54;100.00;99493.00;5108861;28;20221;-87
2022/05/14 04:09:29;;;;;;;8.07;3.93;;;;;;;10.60;100.00;99494.44;5106891;28;20202;-87
2022/05/14 04:12:00;;;;;;;4.87;4.03;;;;;;;10.53;100.00;99490.47;5111595;28;20213;-87
2022/05/14 04:14:29;;;;;;;7.87;4.10;;;;;;;10.66;100.00;99495.88;5114310;28;20206;-86
2022/05/14 04:17:00;;;;;;;6.23;3.87;;;;;;;10.55;100.00;99500.00;5111562;28;20235;-87
2022/05/14 04:19:31;;;;;;;6.57;4.13;;;;;;;10.41;100.00;99505.25;5112448;28;20191;-86
2022/05/14 04:22:00;;;;;;;6.57;4.10;;;;;;;10.34;100.00;99493.31;5124939;27;20192;-87
2022/05/14 04:24:28;;;;;;;5.87;3.77;;;;;;;10.52;100.00;99499.34;5149463;27;20224;-86
2022/05/14 04:26:57;;;;;;;5.10;3.70;;;;;;;10.79;100.00;99497.69;5152754;27;20194;-86
2022/05/14 04:29:25;;;;;;;6.90;4.07;;;;;;;10.88;100.00;99498.94;5156540;27;20194;-88
2022/05/14 04:31:53;;;;;;;8.87;3.53;;;;;;;10.70;100.00;99500.88;5155931;27;20208;-88
2022/05/14 04:34:26;;;;;;;6.63;3.93;;;;;;;10.81;100.00;99495.84;5165432;27;20190;-87
2022/05/14 04:36:55;;;;;;;8.37;4.00;;;;;;;10.95;100.00;99500.28;5171269;27;20194;-86
2022/05/14 04:39:31;;;;;;;4.73;3.60;;;;;;;11.16;100.00;99501.66;5167724;27;20186;-87
2022/05/14 04:42:00;;;;;;;4.80;3.77;;;;;;;11.09;100.00;99504.75;5159959;27;20185;-87
2022/05/14 04:44:29;;;;;;;6.23;3.80;;;;;;;11.09;100.00;99502.94;5152035;27;20303;-87
2022/05/14 04:46:57;;;;;;;7.80;4.00;;;;;;;11.07;100.00;99501.34;5150560;27;20210;-87
2022/05/14 04:49:27;;;;;;;7.33;4.20;;;;;;;11.14;100.00;99506.19;5157106;27;20204;-87
2022/05/14 04:51:56;;;;;;;7.63;4.27;;;;;;;11.31;100.00;99507.81;5161129;27;20221;-87
2022/05/14 04:54:24;;;;;;;7.00;3.97;;;;;;;11.25;100.00;99502.88;5152581;27;20193;-87
2022/05/14 04:56:52;;;;;;;4.47;4.00;;;;;;;11.19;100.00;99511.19;5155337;27;20211;-87
2022/05/14 04:59:21;;;;;;;4.67;4.00;;;;;;;10.99;100.00;99504.44;5160806;27;20197;-87
2022/05/14 05:04:34;;;;;;;5.57;3.97;;;;;;;10.87;100.00;99519.28;5136994;27;20293;-87
2022/05/14 05:07:04;;;;;;;5.63;4.03;;;;;;;10.95;100.00;99512.69;5138891;27;20217;-87
2022/05/14 05:09:33;;;;;;;7.33;4.03;;;;;;;11.03;100.00;99511.28;5135462;27;20194;-87
2022/05/14 05:12:02;;;;;;;5.47;3.80;;;;;;;11.19;100.00;99513.84;5130585;27;20198;-87
2022/05/14 05:14:31;;;;;;;7.30;4.07;;;;;;;11.25;100.00;99521.44;5135354;27;20202;-87
2022/05/14 05:16:59;;;;;;;6.07;4.30;;;;;;;11.26;100.00;99527.59;5129995;27;20301;-87
2022/05/14 05:19:28;;;;;;;8.03;5.07;;;;;;;11.22;100.00;99534.06;5141287;27;20208;-87
2022/05/14 05:21:58;;;;;;;8.03;4.90;;;;;;;11.31;100.00;99526.38;5158197;27;20186;-87
2022/05/14 05:24:27;;;;;;;7.13;5.27;;;;;;;11.45;100.00;99528.19;5160839;27;20217;-86
2022/05/14 05:26:55;;;;;;;8.53;5.40;;;;;;;11.64;100.00;99525.25;5153958;27;20198;-86
2022/05/14 05:29:24;;;;;;;6.13;5.03;;;;;;;11.66;100.00;99526.00;5156161;27;20213;-87
2022/05/14 05:31:52;;;;;;;9.27;5.70;;;;;;;11.83;100.00;99533.78;5152050;27;20200;-88
2022/05/14 05:34:21;;;;;;;8.03;5.70;;;;;;;11.71;100.00;99534.53;5158230;27;20198;-88
2022/05/14 05:36:49;;;;;;;7.67;4.13;;;;;;;11.80;100.00;99530.47;5164834;27;20194;-87
2022/05/14 05:39:19;;;;;;;6.70;3.97;;;;;;;11.76;100.00;99530.63;5166735;27;20224;-88
2022/05/14 05:41:48;;;;;;;5.40;4.17;;;;;;;11.84;100.00;99534.63;5159507;27;20202;-87
2022/05/14 05:44:16;;;;;;;6.90;4.60;;;;;;;12.02;100.00;99536.13;5160721;27;20200;-89
2022/05/14 05:46:45;;;;;;;8.03;4.83;;;;;;;12.20;100.00;99532.28;5158773;27;20278;-87
2022/05/14 05:49:13;;;;;;;7.80;4.80;;;;;;;12.26;100.00;99534.56;5164122;27;20194;-88
2022/05/14 05:51:43;;;;;;;10.13;4.87;;;;;;;12.44;100.00;99548.41;5153552;27;20637;-87
2022/05/14 05:57:02;;;;;;;9.10;5.27;;;;;;;12.72;100.00;99549.25;5082105;28;20210;-86
2022/05/14 05:59:32;;;;;;;12.30;5.57;;;;;;;12.83;100.00;99542.28;5077426;28;20306;-88
2022/05/14 06:02:02;;;;;;;6.37;4.60;;;;;;;12.94;100.00;99546.91;5073983;28;20191;-88
2022/05/14 06:04:30;;;;;;;6.20;5.13;;;;;;;13.04;100.00;99552.44;5072875;28;20368;-88
2022/05/14 06:06:59;;;;;;;7.43;4.93;;;;;;;13.10;100.00;99544.88;5076115;28;20239;-87
2022/05/14 06:09:29;;;;;;;8.43;5.33;;;;;;;13.27;100.00;99551.75;5075420;28;20215;-88
2022/05/14 06:11:59;;;;;;;8.67;4.97;;;;;;;13.21;100.00;99552.16;5098925;27;20194;-88
2022/05/14 06:14:29;;;;;;;7.03;5.23;;;;;;;13.38;100.00;99556.31;5157661;27;20212;-87
2022/05/14 06:17:00;;;;;;;7.77;4.40;;;;;;;13.56;100.00;99547.06;5159495;27;20186;-87
2022/05/14 06:19:30;;;;;;;7.57;4.80;;;;;;;13.55;100.00;99553.34;5153997;27;20201;-88
2022/05/14 06:21:58;;;;;;;6.53;4.10;;;;;;;13.73;100.00;99553.88;5156158;27;20276;-88
2022/05/14 06:24:27;;;;;;;7.40;4.50;;;;;;;13.85;100.00;99550.31;5150412;27;20193;-86
2022/05/14 06:26:58;;;;;;;5.50;4.50;;;;;;;14.05;100.00;99554.22;5149437;27;20216;-88
2022/05/14 06:29:27;;;;;;;8.90;5.20;;;;;;;14.28;100.00;99558.75;5153470;27;20208;-87
2022/05/14 06:31:58;;;;;;;7.90;4.50;;;;;;;14.37;100.00;99557.22;5098016;27;20205;-88
2022/05/14 06:34:27;;;;;;;7.83;4.30;;;;;;;14.63;100.00;99554.47;5151865;27;20201;-87
2022/05/14 06:36:55;;;;;;;6.47;4.40;;;;;;;14.69;100.00;99554.03;5156889;27;20197;-88
2022/05/14 06:39:27;;;;;;;7.23;4.03;;;;;;;14.86;100.00;99566.94;5155744;27;20217;-88
2022/05/14 06:41:55;;;;;;;7.87;4.17;;;;;;;14.59;100.00;99564.53;5135014;27;20186;-88
2022/05/14 06:44:24;;;;;;;6.93;4.40;;;;;;;14.66;100.00;99563.09;5129879;27;20201;-88
2022/05/14 06:46:55;;;;;;;7.03;4.40;;;;;;;14.96;100.00;99564.41;5132257;27;20222;-87
2022/05/14 06:49:25;;;;;;;7.47;4.83;;;;;;;15.02;100.00;99563.97;5132950;27;20186;-87
2022/05/14 06:51:57;;;;;;;9.03;4.17;;;;;;;14.56;100.00;99562.06;5131725;27;20612;-87
2022/05/14 06:54:26;;;;;;;7.17;3.83;;;;;;;14.62;100.00;99566.97;5133015;27;20275;-87
2022/05/14 06:56:54;;;;;;;8.67;3.60;;;;;;;14.94;100.00;99561.88;5126245;27;20273;-86
2022/05/14 06:59:22;;;;;;;11.60;4.23;;;;;;;15.10;100.00;99562.41;5130647;27;20205;-86
2022/05/14 07:01:54;;;;;;;8.53;3.80;;;;;;;15.07;100.00;99565.34;5158137;27;20197;-86
2022/05/14 07:07:17;;;;;;;10.07;3.50;;;;;;;15.33;100.00;99560.66;5158023;27;20206;-87
2022/05/14 07:09:48;;;;;;;8.73;3.37;;;;;;;15.42;100.00;99562.59;5152152;27;20350;-88
2022/05/14 07:12:19;;;;;;;7.63;3.40;;;;;;;15.48;100.00;99565.78;5129373;27;20198;-87
2022/05/14 07:14:47;;;;;;;7.57;3.47;;;;;;;15.63;100.00;99560.13;5126823;27;20198;-87
2022/05/14 07:17:17;;;;;;;8.20;3.90;;;;;;;15.73;100.00;99570.94;5129331;27;20194;-86
2022/05/14 07:19:46;;;;;;;9.83;3.40;;;;;;;15.66;100.00;99562.56;5134220;27;20285;-86
2022/05/14 07:22:15;;;;;;;9.77;3.60;;;;;;;15.79;100.00;99570.44;5130522;27;20215;-87
2022/05/14 07:24:44;;;;;;;8.53;3.60;;;;;;;15.88;100.00;99566.19;5130991;27;20191;-87
2022/05/14 07:27:14;;;;;;;8.47;3.57;;;;;;;15.69;100.00;99567.66;5129002;27;20218;-87
2022/05/14 07:29:44;;;;;;;8.47;3.40;;;;;;;15.70;100.00;99572.03;5131322;27;20221;-87
2022/05/14 07:32:14;;;;;;;10.70;3.50;;;;;;;15.67;100.00;99561.59;5132401;27;20194;-88
2022/05/14 07:34:44;;;;;;;6.97;3.60;;;;;;;15.98;100.00;99561.81;5126660;27;20226;-88
2022/05/14 07:37:18;;;;;;;6.67;3.63;;;;;;;16.23;100.00;99574.09;5149631;27;20193;-85
2022/05/14 07:39:53;;;;;;;9.53;4.13;;;;;;;15.88;100.00;99566.19;5158328;27;20205;-86
2022/05/14 07:42:27;;;;;;;8.77;3.37;;;;;;;16.24;100.00;99565.94;5151439;27;20197;-86
2022/05/14 07:45:03;;;;;;;8.97;3.63;;;;;;;16.27;100.00;99572.84;5151736;27;20221;-87
2022/05/14 07:47:33;;;;;;;8.17;3.50;;;;;;;16.58;100.00;99563.16;5153943;27;20213;-86
2022/05/14 07:50:02;;;;;;;12.53;3.47;;;;;;;16.61;100.00;99570.97;5157735;27;20292;-87
2022/05/14 07:52:37;;;;;;;10.83;3.30;;;;;;;16.77;100.00;99559.84;5147293;27;20254;-86
2022/05/14 07:55:07;;;;;;;7.70;2.90;;;;;;;16.69;100.00;99567.66;5149262;27;20192;-86
2022/05/14 07:57:36;;;;;;;9.40;3.00;;;;;;;17.00;100.00;99558.78;5155474;27;20203;-84
2022/05/14 08:00:07;;;;;;;8.80;3.07;;;;;;;17.12;100.00;99565.78;5151932;27;20190;-84
2022/05/14 08:02:36;;;;;;;6.70;3.13;;;;;;;17.04;100.00;99565.56;5153738;27;20198;-84
2022/05/14 08:05:08;;;;;;;9.57;3.10;;;;;;;16.98;100.00;99560.72;5098292;27;20198;-84
2022/05/14 08:07:44;;;;;;;11.43;3.80;;;;;;;16.72;100.00;99560.25;5157571;27;20255;-85
2022/05/14 08:10:13;;;;;;;9.30;3.60;;;;;;;16.90;100.00;99560.53;5153334;27;20204;-86
2022/05/14 08:12:45;;;;;;;9.83;3.47;;;;;;;17.22;100.00;99565.00;5149379;27;20192;-86
2022/05/14 08:15:18;;;;;;;10.40;3.30;;;;;;;17.43;100.00;99563.16;5150742;27;20276;-85
2022/05/14 08:17:46;;;;;;;12.73;3.23;;;;;;;17.57;100.00;99560.16;5149120;27;20536;-86
2022/05/14 08:20:16;;;;;;;6.77;2.87;;;;;;;17.20;100.00;99561.63;5153775;27;20231;-86
2022/05/14 08:25:32;;;;;;;8.77;2.90;;;;;;;17.94;100.00;99563.16;5155327;27;20200;-86
2022/05/14 08:28:02;;;;;;;8.33;2.90;;;;;;;17.92;100.00;99566.97;5150971;27;20222;-86
2022/05/14 08:30:32;;;;;;;6.27;2.93;;;;;;;17.33;100.00;99559.56;5146952;27;20193;-86
2022/05/14 08:33:02;;;;;;;10.53;2.83;;;;;;;17.30;100.00;99549.13;5147876;27;20193;-87
2022/05/14 08:35:31;;;;;;;6.67;2.60;;;;;;;17.80;100.00;99551.97;5156779;27;20238;-86
2022/05/14 08:38:01;;;;;;;11.50;3.10;;;;;;;17.22;100.00;99560.50;5149149;27;20199;-87
2022/05/14 08:40:33;;;;;;;5.77;2.60;;;;;;;17.49;100.00;99553.75;5155857;27;20221;-87
2022/05/14 08:43:04;;;;;;;7.93;3.03;;;;;;;17.66;100.00;99556.69;5156733;27;20238;-87
2022/05/14 08:45:36;;;;;;;4.90;2.40;;;;;;;17.52;100.00;99556.16;5151904;27;20197;-86
2022/05/14 08:48:11;;;;;;;7.53;2.57;;;;;;;17.36;100.00;99553.94;5156910;27;20213;-86
2022/05/14 08:50:40;;;;;;;7.63;2.50;;;;;;;16.99;100.00;99559.78;5154755;27;20276;-86
2022/05/14 08:53:13;;;;;;;5.90;2.20;;;;;;;17.39;100.00;99557.22;5150684;27;20208;-87
2022/05/14 08:55:47;;;;;;;4.10;2.13;;;;;;;17.87;100.00;99554.00;5151091;27;20190;-87
2022/05/14 08:58:24;;;;;;;4.90;2.30;;;;;;;18.10;100.00;99545.75;5151611;27;20197;-86
2022/05/14 09:00:54;;;;;;;6.83;2.30;;;;;;;18.20;100.00;99539.41;5149721;27;20204;-86
2022/05/14 09:03:22;;;;;;;9.27;2.27;;;;;;;17.70;100.00;99547.41;5149199;27;20196;-86
2022/05/14 09:05:56;;;;;;;6.63;2.10;;;;;;;18.25;100.00;99534.50;5147851;27;20201;-87
2022/05/14 09:08:28;;;;;;;5.57;1.93;;;;;;;17.85;100.00;99534.50;5149309;27;20225;-86
2022/05/14 09:11:00;;;;;;;7.20;2.00;;;;;;;18.10;98.03;99535.00;5154808;27;20190;-86
2022/05/14 09:13:35;;;;;;;6.23;1.90;;;;;;;18.28;98.32;99538.72;5156229;27;20227;-86
2022/05/14 09:16:03;;;;;;;3.27;1.80;;;;;;;18.62;93.56;99532.97;5153773;27;20193;-86
2022/05/14 09:18:34;;;;;;;7.97;2.13;;;;;;;18.92;89.25;99535.59;5159793;27;20212;-86
2022/05/14 09:21:04;;;;;;;4.87;1.70;;;;;;;19.10;90.12;99538.38;5155054;27;20220;-86
2022/05/14 09:23:41;;;;;;;6.90;1.90;;;;;;;19.25;92.96;99534.25;5154037;27;20190;-87
2022/05/14 09:26:13;;;;;;;6.20;2.53;;;;;;;19.69;87.43;99532.78;5156460;27;20194;-86
2022/05/14 09:28:54;;;;;;;4.40;1.83;;;;;;;19.85;83.35;99523.22;5157640;27;20249;-86
2022/05/14 09:31:32;;;;;;;7.50;2.40;;;;;;;19.61;93.83;99524.59;5155901;27;20189;-86
2022/05/14 09:34:05;;;;;;;4.90;2.20;;;;;;;18.71;98.48;99529.47;5150185;27;20239;-87
2022/05/14 09:36:43;;;;;;;5.27;2.20;;;;;;;19.08;98.59;99521.56;5158178;27;20190;-86
2022/05/14 09:39:16;;;;;;;7.23;2.27;;;;;;;19.82;93.42;99516.31;5152868;27;20190;-86
2022/05/14 09:41:50;;;;;;;8.07;2.23;;;;;;;19.56;91.29;99523.31;5158627;27;20651;-86
2022/05/14 09:44:22;;;;;;;6.10;2.17;;;;;;;19.26;95.43;99516.31;5156794;27;20211;-86
2022/05/14 09:46:52;;;;;;;5.43;2.07;;;;;;;19.80;92.95;99515.59;5153311;27;20201;-85
2022/05/14 09:49:26;;;;;;;4.87;2.00;;;;;;;19.68;91.08;99511.38;5153878;27;20277;-86
2022/05/14 09:51:57;;;;;;;4.13;1.80;;;;;;;19.25;93.34;99511.94;5157932;27;20201;-86
2022/05/14 09:54:30;;;;;;;3.53;1.80;;;;;;;20.01;91.21;99507.28;5157972;27;20218;-87
2022/05/14 09:57:17;;;;;;;5.47;2.00;;;;;;;19.78;91.26;99514.03;5151866;27;20197;-86
2022/05/14 10:00:07;;;;;;;5.47;1.97;;;;;;;19.69;90.47;99519.34;5114471;27;20193;-86
2022/05/14 10:02:48;;;;;;;5.47;2.30;;;;;;;19.67;88.63;99517.75;5158034;27;20201;-87
2022/05/14 10:05:33;;;;;;;4.23;1.77;;;;;;;19.62;90.06;99520.06;5152625;27;20659;-87
2022/05/14 10:08:10;;;;;;;5.57;2.03;;;;;;;19.81;89.49;99530.75;5105046;27;20217;-86
2022/05/14 10:10:48;;;;;;;5.97;1.70;;;;;;;19.94;87.79;99511.56;5146032;27;20205;-86
2022/05/14 10:13:23;;;;;;;5.30;1.70;;;;;;;20.25;82.95;99510.25;5157995;27;20652;-87
2022/05/14 10:16:02;;;;;;;3.83;1.47;;;;;;;20.16;81.35;99511.16;5150948;27;20204;-87
2022/05/14 10:18:53;;;;;;;5.03;1.57;;;;;;;20.22;78.03;99513.25;5153570;27;20217;-87
2022/05/14 10:21:31;;;;;;;3.60;1.20;;;;;;;20.21;76.64;99506.19;5154810;27;20273;-88
2022/05/14 10:27:20;;;;;;;4.00;1.60;;;;;;;21.19;70.87;99498.19;5158699;27;20208;-87
2022/05/14 10:29:58;;;;;;;2.40;1.30;;;;;;;21.41;70.71;99482.34;5156609;27;20231;-86
2022/05/14 10:32:31;;;;;;;3.37;1.20;;;;;;;20.33;71.35;99487.97;5154706;27;20336;-87
2022/05/14 10:35:06;;;;;;;3.83;1.57;;;;;;;20.55;71.09;99495.63;5158067;27;20194;-86
2022/05/14 10:37:43;;;;;;;5.07;1.20;;;;;;;20.91;66.88;99481.31;5153085;27;20201;-87
2022/05/14 10:40:20;;;;;;;2.97;1.43;;;;;;;20.50;70.33;99480.94;5155047;27;20272;-87
2022/05/14 10:43:20;;;;;;;2.80;1.30;;;;;;;21.06;67.81;99485.97;5155175;27;20192;-87
2022/05/14 10:45:51;;;;;;;5.23;1.47;;;;;;;21.11;67.40;99483.63;5147207;27;20197;-87
2022/05/14 10:48:38;;;;;;;3.87;1.40;;;;;;;20.75;65.05;99482.88;5154172;27;20217;-87
2022/05/14 10:51:09;;;;;;;5.55;1.30;;;;;;;21.20;62.82;99487.25;5155558;27;20185;-87
2022/05/14 10:53:40;;;;;;;4.60;1.30;;;;;;;21.21;61.26;99482.69;5153124;27;20413;-88
2022/05/14 10:56:13;;;;;;;3.72;1.23;;;;;;;21.43;61.50;99482.22;5153100;27;20268;-87
2022/05/14 10:58:59;;;;;;;3.78;1.20;;;;;;;21.32;61.40;99477.91;5152419;27;20194;-87
2022/05/14 11:01:31;;;;;;;4.93;1.40;;;;;;;21.82;57.27;99473.66;5153735;27;20190;-87
2022/05/14 11:04:07;;;;;;;3.28;1.27;;;;;;;21.59;53.17;99467.97;5152664;27;20197;-87
2022/05/14 11:06:50;;;;;;;2.70;1.05;;;;;;;21.54;53.30;99481.94;5158004;27;20189;-87
2022/05/14 11:09:19;;;;;;;4.05;1.33;;;;;;;21.88;53.17;99481.91;5150207;27;20236;-88
2022/05/14 11:11:50;;;;;;;4.00;1.23;;;;;;;21.46;54.40;99478.34;5154685;27;20246;-89
2022/05/14 11:14:21;;;;;;;4.35;1.33;;;;;;;21.95;49.76;99468.63;5153977;27;20192;-87
2022/05/14 11:16:52;;;;;;;3.17;1.30;;;;;;;22.09;49.61;99469.88;5152170;27;20193;-87
2022/05/14 11:19:31;;;;;;;3.25;1.30;;;;;;;22.67;48.34;99466.25;5154164;27;20324;-87
2022/05/14 11:22:01;;;;;;;3.03;1.25;;;;;;;22.28;50.15;99472.28;5151779;27;20189;-85
2022/05/14 11:24:36;;;;;;;1.63;1.25;;;;;;;22.15;52.74;99472.78;5098714;27;20229;-87
2022/05/14 11:27:06;;;;;;;2.90;1.40;;;;;;;21.27;52.76;99471.34;5153455;27;20193;-87
2022/05/14 11:29:50;;;;;;;6.70;1.40;;;;;;;22.09;53.68;99472.56;5148002;27;20237;-87
2022/05/14 11:32:21;;;;;;;5.07;1.10;;;;;;;22.61;51.34;99461.56;5153921;27;20201;-86
2022/05/14 11:34:55;;;;;;;6.72;1.40;;;;;;;23.30;48.19;99452.06;5152307;27;20202;-86
2022/05/14 11:37:35;;;;;;;5.13;1.13;;;;;;;23.65;49.18;99451.66;5151862;27;20223;-87
2022/05/14 11:40:29;;;;;;;3.67;1.40;;;;;;;24.07;46.42;99449.59;5174026;27;20208;-87
2022/05/14 11:43:11;;;;;;;7.13;1.50;;;;;;;22.81;46.45;99450.25;5150183;27;20198;-87
2022/05/14 11:45:52;;;;;;;6.88;1.20;;;;;;;23.71;44.79;99455.50;5151457;27;20201;-86
2022/05/14 11:48:29;;;;;;;2.67;1.10;;;;;;;22.83;44.26;99456.31;5149898;27;20213;-86
2022/05/14 11:51:02;;;;;;;2.55;1.33;;;;;;;23.60;44.82;99451.34;5153827;27;20196;-87
2022/05/14 11:53:35;;;;;;;2.97;1.30;;;;;;;22.11;47.33;99457.09;5146672;27;20182;-85
2022/05/14 11:56:09;;;;;;;3.17;1.27;;;;;;;23.33;46.26;99452.56;5147021;27;20189;-85
2022/05/14 11:58:43;;;;;;;2.13;1.45;;;;;;;23.32;48.93;99447.31;5151141;27;20190;-86
2022/05/14 12:01:19;;;;;;;2.97;1.40;;;;;;;22.99;47.95;99446.56;5153076;27;20193;-86
2022/05/14 12:03:49;;;;;;;1.98;1.10;;;;;;;23.68;45.73;99440.50;5151315;27;20189;-86
2022/05/14 12:06:37;;;;;;;4.25;1.20;;;;;;;23.63;46.51;99442.84;5154277;27;20194;-86